Time;durP1;ratioP1;P1;durP2;ratioP2;P2;SDS_P1;SDS_P2;PMS_P1;PMS_P2;Temp;Humidity;BMP_temperature;BMP_pressure;BME280_temperature;BME280_humidity;BME280_pressure;Samples;Min_cycle;Max_cycle;Signal;HPM_P1;HPM_P2
2023/10/18 00:00:03;;;;;;;4.47;2.90;;;;;;;;;;470446;28;1107;-69
2023/10/18 00:00:34;;;;;;;4.33;3.00;;;;;;;;;;483170;28;976;-69
2023/10/18 00:00:50;;;;;;;4.57;3.00;;;;;;;;;;482335;28;1075;-69
2023/10/18 00:01:05;;;;;;;4.97;2.90;;;;;;;;;;472455;28;1207;-68
2023/10/18 00:01:20;;;;;;;4.40;2.85;;;;;;;;;;478660;28;1119;-69
2023/10/18 00:01:36;;;;;;;4.37;2.93;;;;;;;;;;469569;28;1162;-69
2023/10/18 00:01:52;;;;;;;4.47;2.87;;;;;;;;;;470866;28;1310;-69
2023/10/18 00:02:16;;;;;;;4.93;2.88;;;;;;;;;;469791;28;1360;-69
2023/10/18 00:02:32;;;;;;;3.97;3.00;;;;;;;;;;471891;28;1055;-69
2023/10/18 00:02:47;;;;;;;3.50;2.73;;;;;;;;;;470728;28;1153;-69
2023/10/18 00:03:03;;;;;;;3.00;2.40;;;;;;;;;;467843;28;941;-69
2023/10/18 00:03:19;;;;;;;3.30;2.55;;;;;;;;;;469738;28;945;-69
2023/10/18 00:03:36;;;;;;;3.75;2.67;;;;;;;;;;471294;28;1165;-69
2023/10/18 00:03:58;;;;;;;3.83;2.60;;;;;;;;;;471521;28;1283;-69
2023/10/18 00:04:15;;;;;;;4.10;2.75;;;;;;;;;;470663;28;1242;-70
2023/10/18 00:04:31;;;;;;;3.83;2.60;;;;;;;;;;471699;28;908;-69
2023/10/18 00:04:46;;;;;;;3.97;2.70;;;;;;;;;;473925;28;887;-69
2023/10/18 00:05:05;;;;;;;3.93;2.77;;;;;;;;;;473014;28;1151;-69
2023/10/18 00:05:22;;;;;;;3.95;2.70;;;;;;;;;;473781;28;949;-69
2023/10/18 00:05:40;;;;;;;4.43;2.75;;;;;;;;;;473228;28;1009;-69
2023/10/18 00:05:57;;;;;;;4.38;2.70;;;;;;;;;;473323;28;936;-69
2023/10/18 00:06:15;;;;;;;3.72;2.70;;;;;;;;;;471457;28;1159;-69
2023/10/18 00:06:32;;;;;;;4.80;3.00;;;;;;;;;;470731;28;982;-69
2023/10/18 00:06:48;;;;;;;5.13;3.22;;;;;;;;;;472012;28;1177;-68
2023/10/18 00:07:04;;;;;;;4.25;2.95;;;;;;;;;;473865;28;1258;-69
2023/10/18 00:07:20;;;;;;;4.50;3.00;;;;;;;;;;473220;28;937;-69
2023/10/18 00:07:35;;;;;;;4.43;2.97;;;;;;;;;;471888;28;1440;-69
2023/10/18 00:07:57;;;;;;;3.97;2.85;;;;;;;;;;471732;28;965;-69
2023/10/18 00:08:12;;;;;;;4.20;3.03;;;;;;;;;;470607;28;1077;-68
2023/10/18 00:08:28;;;;;;;4.40;3.00;;;;;;;;;;469847;28;1040;-69
2023/10/18 00:08:45;;;;;;;4.85;2.90;;;;;;;;;;470224;28;1078;-69
2023/10/18 00:09:38;;;;;;;4.63;3.00;;;;;;;;;;468507;28;1297;-69
2023/10/18 00:09:42;;;;;;;4.78;3.47;;;;;;;;;;470447;28;1073;-69
2023/10/18 00:09:58;;;;;;;4.82;3.30;;;;;;;;;;468121;28;1260;-69
2023/10/18 00:10:17;;;;;;;4.73;3.27;;;;;;;;;;468334;28;1452;-68
2023/10/18 00:10:33;;;;;;;4.97;3.50;;;;;;;;;;469219;28;1265;-69
2023/10/18 00:10:53;;;;;;;4.40;3.60;;;;;;;;;;466332;28;941;-69
2023/10/18 00:11:08;;;;;;;5.05;3.50;;;;;;;;;;467537;28;910;-69
2023/10/18 00:11:25;;;;;;;4.97;3.50;;;;;;;;;;468821;28;1195;-68
2023/10/18 00:11:41;;;;;;;5.13;3.33;;;;;;;;;;468393;28;1528;-69
2023/10/18 00:11:57;;;;;;;5.15;3.30;;;;;;;;;;469858;28;1043;-69
2023/10/18 00:12:16;;;;;;;4.17;3.20;;;;;;;;;;471351;28;1045;-69
2023/10/18 00:12:34;;;;;;;4.90;3.50;;;;;;;;;;472111;28;1084;-68
2023/10/18 00:12:52;;;;;;;4.95;3.55;;;;;;;;;;472217;28;1187;-69
2023/10/18 00:13:08;;;;;;;4.32;3.40;;;;;;;;;;471823;28;1128;-68
2023/10/18 00:13:23;;;;;;;4.43;3.40;;;;;;;;;;469383;28;1375;-69
2023/10/18 00:13:38;;;;;;;4.60;3.30;;;;;;;;;;470799;28;1064;-69
2023/10/18 00:13:54;;;;;;;4.17;3.13;;;;;;;;;;470541;28;1148;-69
2023/10/18 00:14:10;;;;;;;4.00;3.28;;;;;;;;;;469503;28;1118;-69
2023/10/18 00:14:25;;;;;;;4.85;3.33;;;;;;;;;;471568;28;1215;-69
2023/10/18 00:14:41;;;;;;;4.87;3.20;;;;;;;;;;471409;28;1967;-68
2023/10/18 00:14:57;;;;;;;4.47;3.35;;;;;;;;;;469647;28;1154;-69
2023/10/18 00:15:12;;;;;;;4.68;3.47;;;;;;;;;;467886;28;1192;-68
2023/10/18 00:15:27;;;;;;;4.53;3.20;;;;;;;;;;469825;28;911;-69
2023/10/18 00:15:43;;;;;;;4.80;3.20;;;;;;;;;;467780;28;1092;-69
2023/10/18 00:16:02;;;;;;;4.97;3.40;;;;;;;;;;465751;28;1125;-69
2023/10/18 00:16:17;;;;;;;4.40;3.25;;;;;;;;;;465625;28;981;-68
2023/10/18 00:16:34;;;;;;;4.43;3.20;;;;;;;;;;467916;28;911;-69
2023/10/18 00:16:49;;;;;;;4.20;3.15;;;;;;;;;;468124;28;1212;-68
2023/10/18 00:17:05;;;;;;;4.07;3.10;;;;;;;;;;469202;28;1298;-69
2023/10/18 00:17:20;;;;;;;3.80;3.05;;;;;;;;;;469583;28;1049;-69
2023/10/18 00:17:36;;;;;;;4.00;3.10;;;;;;;;;;469675;28;901;-69
2023/10/18 00:17:51;;;;;;;4.95;3.33;;;;;;;;;;470513;28;902;-69
2023/10/18 00:18:06;;;;;;;5.73;3.50;;;;;;;;;;470777;28;1079;-69
2023/10/18 00:18:22;;;;;;;4.87;3.37;;;;;;;;;;469721;28;1164;-69
2023/10/18 00:18:37;;;;;;;4.50;3.30;;;;;;;;;;467725;28;1081;-69
2023/10/18 00:18:52;;;;;;;5.53;3.33;;;;;;;;;;468825;28;1006;-68
2023/10/18 00:19:07;;;;;;;5.23;3.17;;;;;;;;;;468002;28;1007;-69
2023/10/18 00:19:23;;;;;;;4.15;3.10;;;;;;;;;;470340;28;1332;-69
2023/10/18 00:19:40;;;;;;;4.37;3.23;;;;;;;;;;469654;28;909;-69
2023/10/18 00:19:55;;;;;;;4.65;3.40;;;;;;;;;;471145;28;905;-69
2023/10/18 00:20:13;;;;;;;4.43;3.37;;;;;;;;;;470025;28;1076;-69
2023/10/18 00:20:30;;;;;;;4.45;3.28;;;;;;;;;;468856;28;1478;-69
2023/10/18 00:20:46;;;;;;;4.20;3.40;;;;;;;;;;470229;28;1206;-69
2023/10/18 00:21:06;;;;;;;3.90;3.25;;;;;;;;;;470942;28;1151;-69
2023/10/18 00:21:21;;;;;;;3.63;3.17;;;;;;;;;;473710;28;1484;-69
2023/10/18 00:21:37;;;;;;;3.70;3.17;;;;;;;;;;474648;28;1087;-69
2023/10/18 00:21:55;;;;;;;3.88;3.15;;;;;;;;;;472660;28;1223;-69
2023/10/18 00:22:11;;;;;;;5.25;3.40;;;;;;;;;;473251;28;1458;-68
2023/10/18 00:22:27;;;;;;;5.38;3.45;;;;;;;;;;471946;28;1445;-68
2023/10/18 00:22:43;;;;;;;4.43;3.23;;;;;;;;;;472565;28;888;-69
2023/10/18 00:22:58;;;;;;;4.57;3.22;;;;;;;;;;473365;28;1049;-69
2023/10/18 00:23:14;;;;;;;4.13;3.22;;;;;;;;;;472483;28;1051;-69
2023/10/18 00:23:32;;;;;;;4.30;3.30;;;;;;;;;;470752;28;1301;-69
2023/10/18 00:23:48;;;;;;;4.72;3.45;;;;;;;;;;470390;28;1116;-69
2023/10/18 00:24:04;;;;;;;5.22;3.30;;;;;;;;;;469582;28;1173;-69
2023/10/18 00:24:19;;;;;;;5.27;3.30;;;;;;;;;;468877;28;1238;-69
2023/10/18 00:24:36;;;;;;;4.77;3.30;;;;;;;;;;468634;28;1147;-69
2023/10/18 00:24:51;;;;;;;5.07;3.63;;;;;;;;;;468656;28;949;-68
2023/10/18 00:25:08;;;;;;;5.30;3.75;;;;;;;;;;468892;28;1034;-68
2023/10/18 00:25:23;;;;;;;4.85;3.58;;;;;;;;;;469646;28;1253;-69
2023/10/18 00:25:39;;;;;;;5.22;3.60;;;;;;;;;;471129;28;1161;-69
2023/10/18 00:25:54;;;;;;;5.90;3.50;;;;;;;;;;470015;28;895;-68
2023/10/18 00:26:11;;;;;;;5.57;3.40;;;;;;;;;;469666;28;1121;-69
2023/10/18 00:26:26;;;;;;;4.75;3.42;;;;;;;;;;468843;28;1106;-69
2023/10/18 00:26:41;;;;;;;5.00;3.67;;;;;;;;;;469124;28;1146;-69
2023/10/18 00:26:57;;;;;;;5.40;3.75;;;;;;;;;;468648;28;1299;-69
2023/10/18 00:27:13;;;;;;;5.10;3.60;;;;;;;;;;469069;28;1334;-68
2023/10/18 00:27:28;;;;;;;4.82;3.53;;;;;;;;;;470450;28;898;-68
2023/10/18 00:27:47;;;;;;;4.78;3.45;;;;;;;;;;469349;28;1214;-69
2023/10/18 00:28:03;;;;;;;4.85;3.65;;;;;;;;;;470348;28;944;-68
2023/10/18 00:28:20;;;;;;;5.20;3.85;;;;;;;;;;470358;28;1219;-69
2023/10/18 00:28:40;;;;;;;5.65;3.72;;;;;;;;;;472543;28;893;-69
2023/10/18 00:28:55;;;;;;;5.75;3.70;;;;;;;;;;471468;28;1278;-69
2023/10/18 00:29:12;;;;;;;5.13;3.92;;;;;;;;;;470088;28;1195;-69
2023/10/18 00:29:27;;;;;;;5.32;3.75;;;;;;;;;;470250;28;957;-69
2023/10/18 00:29:43;;;;;;;5.47;3.70;;;;;;;;;;472126;28;1078;-69
2023/10/18 00:29:58;;;;;;;6.22;3.90;;;;;;;;;;470000;28;889;-69
2023/10/18 00:30:14;;;;;;;6.67;3.90;;;;;;;;;;470910;28;873;-69
2023/10/18 00:30:30;;;;;;;5.53;3.70;;;;;;;;;;470034;28;1274;-69
2023/10/18 00:30:46;;;;;;;4.78;3.60;;;;;;;;;;469471;28;1200;-69
2023/10/18 00:31:18;;;;;;;4.85;3.70;;;;;;;;;;470054;28;1329;-69
2023/10/18 00:31:33;;;;;;;4.82;3.65;;;;;;;;;;472784;28;1736;-69
2023/10/18 00:31:48;;;;;;;4.82;3.97;;;;;;;;;;471814;28;1355;-69
2023/10/18 00:32:05;;;;;;;4.60;3.73;;;;;;;;;;469951;28;1253;-69
2023/10/18 00:32:21;;;;;;;4.65;3.63;;;;;;;;;;471407;28;1318;-69
2023/10/18 00:32:38;;;;;;;4.75;3.60;;;;;;;;;;472429;28;1215;-69
2023/10/18 00:32:54;;;;;;;5.55;3.72;;;;;;;;;;472351;28;889;-69
2023/10/18 00:33:10;;;;;;;5.57;3.90;;;;;;;;;;471685;28;1214;-68
2023/10/18 00:33:26;;;;;;;5.60;3.70;;;;;;;;;;472087;28;971;-69
2023/10/18 00:33:41;;;;;;;5.23;3.57;;;;;;;;;;470363;28;1096;-69
2023/10/18 00:33:56;;;;;;;4.45;3.50;;;;;;;;;;471158;28;925;-69
2023/10/18 00:34:12;;;;;;;4.70;3.63;;;;;;;;;;469978;28;1247;-69
2023/10/18 00:34:28;;;;;;;5.80;3.77;;;;;;;;;;470590;28;873;-68
2023/10/18 00:34:43;;;;;;;5.97;3.70;;;;;;;;;;470082;28;2016;-69
2023/10/18 00:34:59;;;;;;;5.03;3.63;;;;;;;;;;470694;28;1220;-69
2023/10/18 00:35:23;;;;;;;5.22;3.83;;;;;;;;;;471616;28;1031;-69
2023/10/18 00:35:41;;;;;;;4.63;3.90;;;;;;;;;;472047;28;1153;-69
2023/10/18 00:35:57;;;;;;;5.78;3.90;;;;;;;;;;471449;28;937;-68
2023/10/18 00:36:16;;;;;;;6.22;4.00;;;;;;;;;;471516;28;997;-68
2023/10/18 00:36:32;;;;;;;5.40;3.80;;;;;;;;;;471247;28;924;-69
2023/10/18 00:36:47;;;;;;;5.23;3.73;;;;;;;;;;472160;28;940;-69
2023/10/18 00:37:04;;;;;;;4.70;3.72;;;;;;;;;;472875;28;1145;-69
2023/10/18 00:37:21;;;;;;;4.63;3.53;;;;;;;;;;471408;28;1306;-69
2023/10/18 00:37:36;;;;;;;5.22;3.50;;;;;;;;;;472435;28;1048;-69
2023/10/18 00:37:55;;;;;;;5.03;3.43;;;;;;;;;;472468;28;885;-69
2023/10/18 00:38:14;;;;;;;4.20;3.50;;;;;;;;;;472611;28;1342;-69
2023/10/18 00:38:29;;;;;;;4.68;3.53;;;;;;;;;;471733;28;1081;-69
2023/10/18 00:38:48;;;;;;;4.97;3.53;;;;;;;;;;472343;28;954;-69
2023/10/18 00:39:27;;;;;;;5.85;3.53;;;;;;;;;;471627;28;1198;-69
2023/10/18 00:39:43;;;;;;;4.50;3.70;;;;;;;;;;471975;28;1183;-69
2023/10/18 00:39:59;;;;;;;4.30;3.50;;;;;;;;;;469813;28;1141;-69
2023/10/18 00:40:36;;;;;;;4.43;3.57;;;;;;;;;;472038;28;1152;-69
2023/10/18 00:40:51;;;;;;;4.55;3.65;;;;;;;;;;471214;28;1490;-69
2023/10/18 00:41:09;;;;;;;4.63;3.72;;;;;;;;;;472163;28;923;-69
2023/10/18 00:41:34;;;;;;;5.53;3.80;;;;;;;;;;472355;28;1040;-69
2023/10/18 00:41:53;;;;;;;4.97;3.58;;;;;;;;;;474819;27;1115;-69
2023/10/18 00:42:24;;;;;;;5.47;3.65;;;;;;;;;;473978;28;1574;-69
2023/10/18 00:42:39;;;;;;;5.47;4.00;;;;;;;;;;473708;28;1242;-69
2023/10/18 00:43:14;;;;;;;4.87;3.77;;;;;;;;;;473184;28;1298;-69
2023/10/18 00:43:29;;;;;;;5.45;3.70;;;;;;;;;;473520;28;1312;-69
2023/10/18 00:43:44;;;;;;;5.43;3.80;;;;;;;;;;473088;28;1055;-69
2023/10/18 00:44:00;;;;;;;5.07;3.80;;;;;;;;;;472923;28;1274;-68
2023/10/18 00:44:15;;;;;;;5.55;3.90;;;;;;;;;;472523;28;1357;-69
2023/10/18 00:44:31;;;;;;;5.40;3.90;;;;;;;;;;472170;28;1001;-69
2023/10/18 00:44:54;;;;;;;5.70;3.83;;;;;;;;;;472714;28;889;-69
2023/10/18 00:45:11;;;;;;;5.60;4.18;;;;;;;;;;471088;28;1630;-69
2023/10/18 00:45:29;;;;;;;5.60;4.13;;;;;;;;;;471295;28;1398;-69
2023/10/18 00:45:47;;;;;;;5.68;4.13;;;;;;;;;;471127;28;987;-69
2023/10/18 00:46:06;;;;;;;6.05;4.40;;;;;;;;;;470839;28;1051;-69
2023/10/18 00:46:22;;;;;;;6.00;4.30;;;;;;;;;;472457;28;941;-69
2023/10/18 00:46:39;;;;;;;5.88;4.28;;;;;;;;;;472635;28;1451;-69
2023/10/18 00:46:55;;;;;;;4.78;3.85;;;;;;;;;;472002;28;1063;-69
2023/10/18 00:47:13;;;;;;;4.32;3.60;;;;;;;;;;473803;28;905;-69
2023/10/18 00:47:30;;;;;;;5.00;3.83;;;;;;;;;;473410;28;952;-69
2023/10/18 00:47:46;;;;;;;4.82;3.70;;;;;;;;;;472039;28;1406;-69
2023/10/18 00:48:05;;;;;;;5.23;3.83;;;;;;;;;;472626;28;1191;-69
2023/10/18 00:48:24;;;;;;;5.53;3.85;;;;;;;;;;471230;28;902;-69
2023/10/18 00:48:40;;;;;;;5.22;3.78;;;;;;;;;;471842;28;1030;-69
2023/10/18 00:48:56;;;;;;;5.43;3.78;;;;;;;;;;471893;28;1109;-69
2023/10/18 00:49:14;;;;;;;5.63;3.80;;;;;;;;;;472404;28;1019;-68
2023/10/18 00:49:29;;;;;;;5.07;3.65;;;;;;;;;;470260;28;1354;-69
2023/10/18 00:49:45;;;;;;;5.57;3.50;;;;;;;;;;471501;28;913;-69
2023/10/18 00:50:01;;;;;;;6.40;3.80;;;;;;;;;;469787;28;1145;-69
2023/10/18 00:50:18;;;;;;;6.30;4.00;;;;;;;;;;470501;28;1035;-69
2023/10/18 00:50:37;;;;;;;6.22;4.32;;;;;;;;;;471540;28;933;-69
2023/10/18 00:50:54;;;;;;;5.72;4.32;;;;;;;;;;471182;28;1837;-69
2023/10/18 00:51:11;;;;;;;6.20;4.35;;;;;;;;;;471389;28;1159;-69
2023/10/18 00:51:27;;;;;;;6.30;4.32;;;;;;;;;;472499;28;961;-69
2023/10/18 00:51:44;;;;;;;6.25;4.22;;;;;;;;;;473407;28;933;-68
2023/10/18 00:51:59;;;;;;;6.05;4.10;;;;;;;;;;470848;28;1066;-69
2023/10/18 00:52:15;;;;;;;6.17;4.10;;;;;;;;;;472581;28;1133;-69
2023/10/18 00:52:31;;;;;;;5.93;3.92;;;;;;;;;;473024;28;1076;-69
2023/10/18 00:52:47;;;;;;;4.82;3.50;;;;;;;;;;470129;28;1085;-69
2023/10/18 00:53:05;;;;;;;4.32;3.42;;;;;;;;;;471197;28;1132;-69
2023/10/18 00:53:23;;;;;;;4.30;3.50;;;;;;;;;;469616;28;1374;-69
2023/10/18 00:53:39;;;;;;;4.97;3.63;;;;;;;;;;470411;28;1266;-69
2023/10/18 00:53:55;;;;;;;5.63;3.70;;;;;;;;;;467063;28;1200;-69
2023/10/18 00:54:13;;;;;;;5.13;3.53;;;;;;;;;;468440;28;1070;-69
2023/10/18 00:54:29;;;;;;;5.30;3.70;;;;;;;;;;469009;28;878;-69
2023/10/18 00:54:45;;;;;;;5.90;4.13;;;;;;;;;;469475;28;2026;-69
2023/10/18 00:55:01;;;;;;;4.78;3.95;;;;;;;;;;469886;28;1299;-69
2023/10/18 00:55:16;;;;;;;4.53;3.77;;;;;;;;;;471642;28;1148;-69
2023/10/18 00:55:31;;;;;;;4.40;3.67;;;;;;;;;;472705;28;973;-68
2023/10/18 00:56:04;;;;;;;4.90;3.63;;;;;;;;;;472877;28;1140;-69
2023/10/18 00:56:20;;;;;;;5.40;3.50;;;;;;;;;;474236;28;976;-69
2023/10/18 00:56:35;;;;;;;5.77;3.67;;;;;;;;;;472512;28;1303;-69
2023/10/18 00:56:51;;;;;;;6.13;3.72;;;;;;;;;;474130;28;1190;-69
2023/10/18 00:57:07;;;;;;;5.40;3.70;;;;;;;;;;471084;28;1203;-69
2023/10/18 00:57:25;;;;;;;5.03;3.90;;;;;;;;;;471234;28;1689;-69
2023/10/18 00:57:41;;;;;;;4.60;3.63;;;;;;;;;;469839;28;1179;-69
2023/10/18 00:58:03;;;;;;;4.67;3.67;;;;;;;;;;470143;28;886;-69
2023/10/18 00:58:23;;;;;;;5.00;3.70;;;;;;;;;;469964;28;902;-68
2023/10/18 00:58:42;;;;;;;5.13;3.70;;;;;;;;;;469445;28;2064;-69
2023/10/18 00:58:59;;;;;;;4.85;3.65;;;;;;;;;;468755;28;1228;-69
2023/10/18 00:59:19;;;;;;;4.95;3.70;;;;;;;;;;468887;28;1396;-69
2023/10/18 00:59:34;;;;;;;4.72;3.90;;;;;;;;;;469630;28;1088;-69
2023/10/18 00:59:52;;;;;;;4.53;3.90;;;;;;;;;;470428;28;1018;-68
2023/10/18 01:00:09;;;;;;;4.43;3.60;;;;;;;;;;469440;28;1290;-69
2023/10/18 01:00:24;;;;;;;4.47;3.60;;;;;;;;;;470853;28;1112;-69
2023/10/18 01:00:40;;;;;;;4.97;3.67;;;;;;;;;;470158;28;886;-69
2023/10/18 01:00:56;;;;;;;4.85;3.78;;;;;;;;;;470875;28;1038;-69
2023/10/18 01:01:12;;;;;;;4.32;3.65;;;;;;;;;;471153;28;1033;-69
2023/10/18 01:01:28;;;;;;;4.78;3.72;;;;;;;;;;472162;28;1290;-68
2023/10/18 01:01:44;;;;;;;5.93;4.40;;;;;;;;;;471661;28;1202;-68
2023/10/18 01:02:05;;;;;;;6.25;4.65;;;;;;;;;;468569;28;1230;-69
2023/10/18 01:02:28;;;;;;;6.07;4.30;;;;;;;;;;468448;28;1077;-68
2023/10/18 01:02:43;;;;;;;5.22;3.80;;;;;;;;;;466777;28;1401;-68
2023/10/18 01:03:00;;;;;;;5.20;3.80;;;;;;;;;;469031;28;1107;-69
2023/10/18 01:03:28;;;;;;;5.28;3.60;;;;;;;;;;467180;28;1452;-67
2023/10/18 01:03:46;;;;;;;5.45;3.70;;;;;;;;;;468716;28;938;-67
2023/10/18 01:04:05;;;;;;;4.75;3.60;;;;;;;;;;469801;28;976;-67
2023/10/18 01:04:24;;;;;;;4.60;3.58;;;;;;;;;;471793;28;1024;-67
2023/10/18 01:04:41;;;;;;;5.25;3.70;;;;;;;;;;471576;28;921;-67
2023/10/18 01:04:56;;;;;;;5.15;3.70;;;;;;;;;;472846;28;890;-67
2023/10/18 01:05:15;;;;;;;4.27;3.43;;;;;;;;;;472862;28;1139;-66
2023/10/18 01:05:31;;;;;;;4.82;3.38;;;;;;;;;;473686;28;1551;-67
2023/10/18 01:06:08;;;;;;;4.47;3.50;;;;;;;;;;473313;28;893;-67
2023/10/18 01:06:26;;;;;;;5.97;3.83;;;;;;;;;;472166;28;1190;-67
2023/10/18 01:06:50;;;;;;;6.03;4.10;;;;;;;;;;472673;28;913;-67
2023/10/18 01:07:12;;;;;;;5.93;4.03;;;;;;;;;;474383;27;1339;-67
2023/10/18 01:07:27;;;;;;;5.40;3.53;;;;;;;;;;473950;28;1072;-67
2023/10/18 01:07:45;;;;;;;5.20;3.63;;;;;;;;;;473538;28;977;-67
2023/10/18 01:08:06;;;;;;;5.32;3.60;;;;;;;;;;471970;28;1053;-66
2023/10/18 01:08:23;;;;;;;5.95;3.30;;;;;;;;;;472042;28;1096;-67
2023/10/18 01:08:39;;;;;;;6.15;3.40;;;;;;;;;;469920;28;1231;-67
2023/10/18 01:08:56;;;;;;;4.60;3.30;;;;;;;;;;470368;28;913;-67
2023/10/18 01:09:16;;;;;;;4.13;3.20;;;;;;;;;;468230;28;1711;-67
2023/10/18 01:09:31;;;;;;;4.35;3.25;;;;;;;;;;468875;28;1112;-67
2023/10/18 01:09:53;;;;;;;5.30;3.43;;;;;;;;;;468136;28;1223;-66
2023/10/18 01:10:09;;;;;;;5.32;3.35;;;;;;;;;;471704;28;937;-67
2023/10/18 01:10:25;;;;;;;5.00;3.28;;;;;;;;;;468921;28;1111;-67
2023/10/18 01:10:42;;;;;;;4.47;3.13;;;;;;;;;;469065;28;1124;-66
2023/10/18 01:11:04;;;;;;;4.15;3.20;;;;;;;;;;468546;28;1347;-67
2023/10/18 01:11:26;;;;;;;4.93;3.47;;;;;;;;;;472460;28;1005;-67
2023/10/18 01:11:45;;;;;;;4.13;3.50;;;;;;;;;;480474;28;1135;-67
2023/10/18 01:12:01;;;;;;;3.92;3.42;;;;;;;;;;490380;28;1395;-67
2023/10/18 01:12:17;;;;;;;4.67;3.50;;;;;;;;;;475106;28;1316;-67
2023/10/18 01:12:36;;;;;;;4.63;3.60;;;;;;;;;;472285;28;1083;-67
2023/10/18 01:12:52;;;;;;;4.65;3.38;;;;;;;;;;471012;28;972;-67
2023/10/18 01:13:09;;;;;;;4.37;3.13;;;;;;;;;;471699;28;1006;-67
2023/10/18 01:13:24;;;;;;;4.40;3.25;;;;;;;;;;471251;28;964;-67
2023/10/18 01:13:45;;;;;;;4.23;3.10;;;;;;;;;;471096;28;1083;-66
2023/10/18 01:14:00;;;;;;;3.85;3.10;;;;;;;;;;471696;28;1549;-66
2023/10/18 01:14:18;;;;;;;4.30;3.23;;;;;;;;;;470729;28;1283;-67
2023/10/18 01:14:34;;;;;;;4.40;3.38;;;;;;;;;;469237;28;1037;-67
2023/10/18 01:14:49;;;;;;;3.93;3.27;;;;;;;;;;468554;28;1945;-67
2023/10/18 01:15:06;;;;;;;3.85;3.17;;;;;;;;;;471734;28;990;-67
2023/10/18 01:15:22;;;;;;;4.55;3.35;;;;;;;;;;476813;28;1359;-67
2023/10/18 01:15:37;;;;;;;5.03;3.27;;;;;;;;;;483972;28;1114;-67
2023/10/18 01:15:53;;;;;;;5.45;3.38;;;;;;;;;;471098;28;953;-67
2023/10/18 01:16:15;;;;;;;4.63;3.30;;;;;;;;;;473840;27;1167;-67
2023/10/18 01:16:34;;;;;;;4.28;3.20;;;;;;;;;;473566;28;1125;-67
2023/10/18 01:16:53;;;;;;;4.95;3.30;;;;;;;;;;473355;28;968;-66
2023/10/18 01:17:08;;;;;;;4.53;3.42;;;;;;;;;;473601;28;972;-67
2023/10/18 01:17:25;;;;;;;4.20;3.40;;;;;;;;;;472508;28;1046;-67
2023/10/18 01:17:44;;;;;;;4.40;3.10;;;;;;;;;;480462;28;1373;-66
2023/10/18 01:18:00;;;;;;;4.88;3.20;;;;;;;;;;470445;28;949;-67
2023/10/18 01:18:18;;;;;;;4.57;3.38;;;;;;;;;;473837;28;1072;-67
2023/10/18 01:18:33;;;;;;;3.95;3.10;;;;;;;;;;474167;28;984;-67
2023/10/18 01:18:50;;;;;;;4.00;3.10;;;;;;;;;;471526;28;966;-67
2023/10/18 01:19:08;;;;;;;4.10;3.20;;;;;;;;;;472216;28;1345;-67
2023/10/18 01:19:23;;;;;;;3.50;3.00;;;;;;;;;;477728;28;1388;-67
2023/10/18 01:19:41;;;;;;;4.10;3.07;;;;;;;;;;484383;28;1549;-67
2023/10/18 01:19:58;;;;;;;4.35;2.90;;;;;;;;;;471215;28;1107;-67
2023/10/18 01:20:48;;;;;;;4.38;3.30;;;;;;;;;;488965;28;874;-67
2023/10/18 01:21:17;;;;;;;5.03;3.30;;;;;;;;;;490100;28;945;-68
2023/10/18 01:21:33;;;;;;;4.60;3.10;;;;;;;;;;472416;28;1096;-67
2023/10/18 01:21:51;;;;;;;4.78;3.00;;;;;;;;;;473060;28;1541;-67
2023/10/18 01:22:07;;;;;;;4.03;3.10;;;;;;;;;;480937;28;1431;-67
2023/10/18 01:22:23;;;;;;;3.97;3.10;;;;;;;;;;477839;28;1248;-67
2023/10/18 01:22:39;;;;;;;3.92;3.00;;;;;;;;;;487203;28;952;-67
2023/10/18 01:22:55;;;;;;;4.63;3.08;;;;;;;;;;471141;28;921;-67
2023/10/18 01:23:11;;;;;;;4.43;3.20;;;;;;;;;;472952;28;889;-67
2023/10/18 01:23:27;;;;;;;4.13;3.28;;;;;;;;;;470936;28;1303;-67
2023/10/18 01:23:54;;;;;;;4.00;3.20;;;;;;;;;;472088;28;917;-66
2023/10/18 01:24:14;;;;;;;4.55;3.35;;;;;;;;;;473112;28;1078;-67
2023/10/18 01:24:36;;;;;;;4.40;3.30;;;;;;;;;;476020;27;881;-67
2023/10/18 01:24:51;;;;;;;4.65;3.20;;;;;;;;;;476431;27;1025;-67
2023/10/18 01:25:09;;;;;;;4.93;3.23;;;;;;;;;;473549;28;1124;-67
2023/10/18 01:25:25;;;;;;;4.30;2.85;;;;;;;;;;473159;28;917;-67
2023/10/18 01:25:41;;;;;;;3.85;2.90;;;;;;;;;;472564;28;1319;-67
2023/10/18 01:25:56;;;;;;;4.20;3.30;;;;;;;;;;472190;28;1151;-67
2023/10/18 01:26:13;;;;;;;4.03;3.33;;;;;;;;;;472042;28;1232;-67
2023/10/18 01:26:31;;;;;;;5.57;3.20;;;;;;;;;;470030;28;1100;-67
2023/10/18 01:26:47;;;;;;;5.90;3.40;;;;;;;;;;469317;28;1257;-66
2023/10/18 01:27:03;;;;;;;5.03;3.40;;;;;;;;;;470099;28;889;-67
2023/10/18 01:27:18;;;;;;;5.75;3.58;;;;;;;;;;474691;28;1008;-67
2023/10/18 01:27:34;;;;;;;6.50;3.70;;;;;;;;;;480381;28;854;-67
2023/10/18 01:27:51;;;;;;;6.55;3.67;;;;;;;;;;469818;28;1624;-68
2023/10/18 01:28:06;;;;;;;6.55;3.40;;;;;;;;;;468630;28;1287;-67
2023/10/18 01:28:22;;;;;;;5.23;3.30;;;;;;;;;;467921;28;1343;-67
2023/10/18 01:28:37;;;;;;;4.18;3.30;;;;;;;;;;466606;28;1212;-67
2023/10/18 01:28:55;;;;;;;4.43;3.20;;;;;;;;;;467457;28;958;-67
2023/10/18 01:29:10;;;;;;;4.72;3.20;;;;;;;;;;472402;28;1264;-67
2023/10/18 01:29:26;;;;;;;5.00;3.30;;;;;;;;;;480597;28;1297;-67
2023/10/18 01:29:41;;;;;;;4.72;3.30;;;;;;;;;;479633;28;940;-67
2023/10/18 01:29:56;;;;;;;4.00;3.27;;;;;;;;;;467027;28;1089;-67
2023/10/18 01:30:16;;;;;;;4.27;3.40;;;;;;;;;;472196;28;1051;-68
2023/10/18 01:30:33;;;;;;;5.53;3.45;;;;;;;;;;482796;28;1300;-67
2023/10/18 01:30:48;;;;;;;5.18;3.35;;;;;;;;;;472899;28;1123;-67
2023/10/18 01:31:05;;;;;;;3.87;3.30;;;;;;;;;;468672;28;1058;-67
2023/10/18 01:31:22;;;;;;;4.07;3.17;;;;;;;;;;474135;28;1109;-67
2023/10/18 01:31:43;;;;;;;4.63;3.30;;;;;;;;;;478327;28;1190;-67
2023/10/18 01:31:59;;;;;;;4.28;3.33;;;;;;;;;;472418;28;1596;-67
2023/10/18 01:32:16;;;;;;;4.28;3.30;;;;;;;;;;473646;28;1146;-67
2023/10/18 01:32:32;;;;;;;5.00;3.30;;;;;;;;;;485610;28;1164;-67
2023/10/18 01:32:48;;;;;;;5.77;3.53;;;;;;;;;;475159;28;1161;-66
2023/10/18 01:33:04;;;;;;;4.70;3.50;;;;;;;;;;470202;28;1353;-67
2023/10/18 01:33:22;;;;;;;4.30;3.50;;;;;;;;;;474692;28;969;-67
2023/10/18 01:33:46;;;;;;;5.38;3.53;;;;;;;;;;478280;28;1480;-67
2023/10/18 01:34:03;;;;;;;5.07;3.60;;;;;;;;;;481162;28;1148;-67
2023/10/18 01:34:19;;;;;;;4.80;3.40;;;;;;;;;;471280;28;1494;-67
2023/10/18 01:34:36;;;;;;;4.67;3.40;;;;;;;;;;486682;28;1309;-67
2023/10/18 01:34:51;;;;;;;5.30;3.30;;;;;;;;;;470063;28;1965;-67
2023/10/18 01:35:07;;;;;;;4.50;3.20;;;;;;;;;;470017;28;1088;-67
2023/10/18 01:35:23;;;;;;;3.53;3.03;;;;;;;;;;475899;28;1197;-67
2023/10/18 01:35:53;;;;;;;3.90;3.10;;;;;;;;;;485980;28;1065;-67
2023/10/18 01:36:12;;;;;;;5.00;3.30;;;;;;;;;;471486;28;1012;-67
2023/10/18 01:36:31;;;;;;;4.68;3.40;;;;;;;;;;481195;28;1178;-67
2023/10/18 01:36:48;;;;;;;4.35;3.40;;;;;;;;;;475218;28;970;-67
2023/10/18 01:37:05;;;;;;;4.90;3.35;;;;;;;;;;468415;28;1694;-67
2023/10/18 01:37:21;;;;;;;5.00;3.30;;;;;;;;;;474244;28;1543;-67
2023/10/18 01:37:39;;;;;;;4.45;3.33;;;;;;;;;;487301;28;1112;-67
2023/10/18 01:37:54;;;;;;;4.07;3.40;;;;;;;;;;471052;28;1053;-67
2023/10/18 01:38:13;;;;;;;4.38;3.60;;;;;;;;;;471238;28;1017;-67
2023/10/18 01:38:30;;;;;;;4.43;3.60;;;;;;;;;;483432;28;878;-67
2023/10/18 01:38:48;;;;;;;4.13;3.42;;;;;;;;;;478639;28;1052;-67
2023/10/18 01:39:06;;;;;;;5.20;3.55;;;;;;;;;;471280;28;1209;-67
2023/10/18 01:39:22;;;;;;;5.32;3.63;;;;;;;;;;480564;28;1698;-67
2023/10/18 01:39:38;;;;;;;4.55;3.40;;;;;;;;;;491576;28;933;-68
2023/10/18 01:39:54;;;;;;;4.70;3.33;;;;;;;;;;481096;28;1317;-67
2023/10/18 01:40:52;;;;;;;5.30;3.42;;;;;;;;;;484382;28;910;-67
2023/10/18 01:41:09;;;;;;;4.40;3.30;;;;;;;;;;476773;28;1265;-67
2023/10/18 01:41:34;;;;;;;3.72;3.15;;;;;;;;;;470003;28;1380;-67
2023/10/18 01:41:51;;;;;;;4.40;3.47;;;;;;;;;;470170;28;1622;-67
2023/10/18 01:42:06;;;;;;;4.25;3.30;;;;;;;;;;470415;28;915;-67
2023/10/18 01:42:21;;;;;;;4.20;3.47;;;;;;;;;;480502;28;1081;-67
2023/10/18 01:42:37;;;;;;;4.17;3.43;;;;;;;;;;479876;28;1007;-67
2023/10/18 01:42:55;;;;;;;4.88;3.45;;;;;;;;;;471189;28;1017;-67
2023/10/18 01:43:11;;;;;;;4.47;3.35;;;;;;;;;;469616;28;1413;-67
2023/10/18 01:43:29;;;;;;;3.80;3.17;;;;;;;;;;469764;28;1125;-67
2023/10/18 01:43:45;;;;;;;4.32;3.40;;;;;;;;;;471005;28;1108;-67
2023/10/18 01:44:10;;;;;;;4.33;3.23;;;;;;;;;;470714;28;1149;-67
2023/10/18 01:44:30;;;;;;;4.75;3.22;;;;;;;;;;489666;28;1301;-67
2023/10/18 01:44:48;;;;;;;3.70;3.00;;;;;;;;;;482314;28;1184;-67
2023/10/18 01:45:07;;;;;;;4.53;3.38;;;;;;;;;;488352;28;1144;-67
2023/10/18 01:45:26;;;;;;;5.53;3.47;;;;;;;;;;470504;28;1096;-66
2023/10/18 01:45:42;;;;;;;5.43;3.35;;;;;;;;;;470126;28;1014;-67
2023/10/18 01:45:58;;;;;;;4.70;3.30;;;;;;;;;;469834;28;1021;-66
2023/10/18 01:46:13;;;;;;;4.82;3.60;;;;;;;;;;469854;28;953;-67
2023/10/18 01:46:29;;;;;;;4.63;3.47;;;;;;;;;;471685;28;1052;-67
2023/10/18 01:46:46;;;;;;;4.88;3.33;;;;;;;;;;469291;28;1192;-67
2023/10/18 01:47:12;;;;;;;4.78;3.38;;;;;;;;;;469654;28;949;-67
2023/10/18 01:47:27;;;;;;;4.63;3.33;;;;;;;;;;469742;28;1536;-67
2023/10/18 01:47:45;;;;;;;4.27;2.93;;;;;;;;;;468844;28;1286;-67
2023/10/18 01:48:00;;;;;;;4.15;2.88;;;;;;;;;;469926;28;1038;-67
2023/10/18 01:48:18;;;;;;;3.78;2.90;;;;;;;;;;470893;28;977;-66
2023/10/18 01:48:37;;;;;;;3.47;2.90;;;;;;;;;;472098;28;1374;-67
2023/10/18 01:48:55;;;;;;;3.78;3.03;;;;;;;;;;473730;28;1170;-67
2023/10/18 01:49:16;;;;;;;4.10;3.20;;;;;;;;;;476909;28;949;-67
2023/10/18 01:49:31;;;;;;;4.90;3.55;;;;;;;;;;485960;28;1105;-67
2023/10/18 01:49:50;;;;;;;5.20;3.40;;;;;;;;;;479196;28;984;-67